createdAt,value
2023-01-23T00:00:41.526Z,102041.72
2023-01-23T00:03:09.368Z,102050.88
2023-01-23T00:05:37.150Z,102051.03
2023-01-23T00:08:04.880Z,102056.63
2023-01-23T00:10:32.640Z,102048.44
2023-01-23T00:13:00.451Z,102054.03
2023-01-23T00:15:28.412Z,102052.31
2023-01-23T00:17:56.218Z,102056.19
2023-01-23T00:20:23.990Z,102058.06
2023-01-23T00:22:51.749Z,102049.91
2023-01-23T00:25:19.566Z,102054.50
2023-01-23T00:27:47.328Z,102058.19
2023-01-23T00:30:16.216Z,102056.31
2023-01-23T00:32:44.120Z,102062.81
2023-01-23T00:35:11.848Z,102060.22
2023-01-23T00:37:39.618Z,102069.28
2023-01-23T00:40:07.360Z,102059.31
2023-01-23T00:42:35.112Z,102063.91
2023-01-23T00:45:02.944Z,102056.50
2023-01-23T00:47:30.759Z,102064.94
2023-01-23T00:49:59.174Z,102074.38
2023-01-23T00:52:27.551Z,102065.50
2023-01-23T00:54:55.358Z,102071.25
2023-01-23T00:57:23.137Z,102069.38
2023-01-23T00:59:50.888Z,102070.94
2023-01-23T01:02:18.675Z,102069.97
2023-01-23T01:04:46.421Z,102082.13
2023-01-23T01:07:14.235Z,102076.13
2023-01-23T01:09:42.701Z,102080.84
2023-01-23T01:12:10.447Z,102080.00
2023-01-23T01:14:38.230Z,102084.44
2023-01-23T01:17:07.106Z,102086.44
2023-01-23T01:19:34.883Z,102086.00
2023-01-23T01:22:02.616Z,102091.31
2023-01-23T01:24:30.385Z,102092.34
2023-01-23T01:26:58.099Z,102091.44
2023-01-23T01:29:25.864Z,102081.56
2023-01-23T01:31:53.709Z,102095.19
2023-01-23T01:34:23.555Z,102094.47
2023-01-23T01:36:51.742Z,102099.34
2023-01-23T01:39:19.542Z,102100.94
2023-01-23T01:41:47.322Z,102103.06
2023-01-23T01:44:15.089Z,102107.94
2023-01-23T01:46:42.881Z,102101.91
2023-01-23T01:49:10.737Z,102106.47
2023-01-23T01:51:38.548Z,102110.94
2023-01-23T01:54:06.303Z,102111.94
2023-01-23T01:56:34.102Z,102117.38
2023-01-23T01:59:01.852Z,102118.56
2023-01-23T02:01:29.668Z,102131.28
2023-01-23T02:03:57.443Z,102126.84
2023-01-23T02:06:25.240Z,102128.56
2023-01-23T02:08:53.071Z,102134.00
2023-01-23T02:11:20.869Z,102144.03
2023-01-23T02:13:48.695Z,102146.94
2023-01-23T02:16:16.473Z,102138.75
2023-01-23T02:18:45.162Z,102138.75
2023-01-23T02:21:12.912Z,102144.03
2023-01-23T02:23:40.713Z,102142.34
2023-01-23T02:26:08.510Z,102146.94
2023-01-23T02:28:36.287Z,102149.78
2023-01-23T02:31:04.165Z,102149.06
2023-01-23T02:33:32.016Z,102150.91
2023-01-23T02:35:59.806Z,102138.44
2023-01-23T02:38:27.514Z,102140.31
2023-01-23T02:40:55.279Z,102151.22
2023-01-23T02:43:23.047Z,102149.34
2023-01-23T02:45:50.877Z,102154.91
2023-01-23T02:48:18.625Z,102143.16
2023-01-23T02:50:46.538Z,102154.06
2023-01-23T02:53:14.304Z,102147.75
2023-01-23T02:55:43.381Z,102151.50
2023-01-23T02:58:28.883Z,102157.06
2023-01-23T03:00:56.723Z,102151.75
2023-01-23T03:03:24.527Z,102152.63
2023-01-23T03:05:52.298Z,102156.06
2023-01-23T03:08:20.223Z,102151.75
2023-01-23T03:10:48.006Z,102152.75
2023-01-23T03:13:15.777Z,102154.91
2023-01-23T03:15:43.515Z,102152.31
2023-01-23T03:18:11.255Z,102157.75
2023-01-23T03:20:39.139Z,102158.88
2023-01-23T03:23:07.337Z,102158.03
2023-01-23T03:25:35.049Z,102163.47
2023-01-23T03:28:02.832Z,102161.75
2023-01-23T03:30:29.647Z,102161.03
2023-01-23T03:32:57.437Z,102164.75
2023-01-23T03:35:25.217Z,102164.63
2023-01-23T03:37:53.343Z,102169.22
2023-01-23T03:40:38.735Z,102170.34
2023-01-23T03:43:06.517Z,102167.75
2023-01-23T03:45:34.456Z,102178.50
2023-01-23T03:48:02.320Z,102169.50
2023-01-23T03:50:30.175Z,102186.53
2023-01-23T03:52:57.972Z,102183.53
2023-01-23T03:55:25.756Z,102185.66
2023-01-23T03:57:53.590Z,102186.53
2023-01-23T04:00:21.840Z,102178.63
2023-01-23T04:02:49.892Z,102179.50
2023-01-23T04:05:17.657Z,102183.22
2023-01-23T04:07:45.455Z,102184.81
2023-01-23T04:10:13.432Z,102185.53
2023-01-23T04:12:41.226Z,102175.78
2023-01-23T04:15:09.036Z,102184.81
2023-01-23T04:17:36.811Z,102183.97
2023-01-23T04:20:04.724Z,102186.53
2023-01-23T04:22:32.596Z,102181.34
2023-01-23T04:25:00.335Z,102178.50
2023-01-23T04:27:28.132Z,102177.66
2023-01-23T04:29:55.916Z,102178.63
2023-01-23T04:32:23.759Z,102176.19
2023-01-23T04:34:51.572Z,102177.66
2023-01-23T04:37:19.347Z,102177.78
2023-01-23T04:39:47.280Z,102173.06
2023-01-23T04:42:15.093Z,102175.78
2023-01-23T04:44:42.877Z,102180.50
2023-01-23T04:47:10.606Z,102177.91
2023-01-23T04:49:38.422Z,102186.34
2023-01-23T04:52:06.284Z,102191.06
2023-01-23T04:54:34.230Z,102194.69
2023-01-23T04:57:02.059Z,102197.25
2023-01-23T04:59:29.838Z,102203.41
2023-01-23T05:01:57.748Z,102210.72
2023-01-23T05:04:25.566Z,102218.03
2023-01-23T05:06:53.336Z,102219.88
2023-01-23T05:09:21.150Z,102222.75
2023-01-23T05:11:48.898Z,102230.19
2023-01-23T05:14:16.638Z,102235.63
2023-01-23T05:16:44.402Z,102235.03
2023-01-23T05:19:12.409Z,102233.19
2023-01-23T05:21:40.128Z,102228.31
2023-01-23T05:24:07.930Z,102233.03
2023-01-23T05:26:35.810Z,102228.47
2023-01-23T05:29:03.628Z,102236.63
2023-01-23T05:31:31.451Z,102249.50
2023-01-23T05:33:59.434Z,102248.66
2023-01-23T05:36:27.266Z,102245.66
2023-01-23T05:38:55.101Z,102241.06
2023-01-23T05:41:25.433Z,102252.97
2023-01-23T05:43:53.643Z,102250.50
2023-01-23T05:46:22.945Z,102256.81
2023-01-23T05:48:51.072Z,102256.94
2023-01-23T05:51:18.982Z,102240.84
2023-01-23T05:53:46.922Z,102247.28
2023-01-23T05:56:14.760Z,102242.31
2023-01-23T05:58:42.533Z,102249.50
2023-01-23T06:01:10.388Z,102254.47
2023-01-23T06:03:38.204Z,102252.59
2023-01-23T06:06:06.324Z,102255.19
2023-01-23T06:08:34.152Z,102264.84
2023-01-23T06:11:01.917Z,102257.41
2023-01-23T06:13:29.643Z,102266.59
2023-01-23T06:15:57.538Z,102264.72
2023-01-23T06:18:25.379Z,102268.28
2023-01-23T06:20:53.191Z,102270.28
2023-01-23T06:23:20.990Z,102274.47
2023-01-23T06:25:48.775Z,102270.00
2023-01-23T06:28:16.579Z,102271.13
2023-01-23T06:30:44.406Z,102273.16
2023-01-23T06:33:12.243Z,102281.16
2023-01-23T06:35:40.024Z,102292.22
2023-01-23T06:38:07.844Z,102288.59
2023-01-23T06:40:35.639Z,102286.78
2023-01-23T06:43:03.430Z,102293.06
2023-01-23T06:45:31.416Z,102294.94
2023-01-23T06:47:59.187Z,102297.78
2023-01-23T06:50:26.928Z,102303.22
2023-01-23T06:52:54.675Z,102306.91
2023-01-23T06:55:22.554Z,102302.59
2023-01-23T06:57:50.342Z,102307.91
2023-01-23T07:00:18.295Z,102307.81
2023-01-23T07:02:46.310Z,102302.44
2023-01-23T07:05:14.059Z,102305.16
2023-01-23T07:07:41.792Z,102306.19
2023-01-23T07:10:09.566Z,102306.19
2023-01-23T07:12:37.329Z,102317.34
2023-01-23T07:15:05.061Z,102322.03
2023-01-23T07:17:32.832Z,102330.22
2023-01-23T07:20:00.642Z,102329.75
2023-01-23T07:22:28.429Z,102338.91
2023-01-23T07:24:56.223Z,102338.19
2023-01-23T07:27:24.002Z,102345.81
2023-01-23T07:29:51.813Z,102348.41
2023-01-23T07:32:19.575Z,102346.94
2023-01-23T07:34:47.340Z,102357.69
2023-01-23T07:37:15.255Z,102363.13
2023-01-23T07:39:43.012Z,102359.94
2023-01-23T07:42:10.834Z,102367.84
2023-01-23T07:44:38.616Z,102369.72
2023-01-23T07:47:06.348Z,102357.97
2023-01-23T07:49:34.194Z,102364.25
2023-01-23T07:52:02.047Z,102373.56
2023-01-23T07:54:29.884Z,102378.72
2023-01-23T07:56:57.648Z,102381.72
2023-01-23T07:59:25.430Z,102382.47
2023-01-23T08:01:53.236Z,102392.59
2023-01-23T08:04:21.023Z,102395.19
2023-01-23T08:06:48.863Z,102391.84
2023-01-23T08:09:16.808Z,102390.75
2023-01-23T08:11:44.698Z,102400.50
2023-01-23T08:14:12.430Z,102385.41
2023-01-23T08:16:40.219Z,102391.84
2023-01-23T08:19:08.438Z,102389.88
2023-01-23T08:21:36.236Z,102388.75
2023-01-23T08:24:04.904Z,102391.00
2023-01-23T08:26:33.530Z,102396.72
2023-01-23T08:29:01.381Z,102403.97
2023-01-23T08:31:29.289Z,102407.44
2023-01-23T08:33:57.147Z,102407.59
2023-01-23T08:36:25.007Z,102412.28
2023-01-23T08:38:52.953Z,102413.41
2023-01-23T08:41:20.800Z,102410.44
2023-01-23T08:43:48.615Z,102414.28
2023-01-23T08:46:16.399Z,102407.81
2023-01-23T08:48:44.224Z,102416.13
2023-01-23T08:51:12.660Z,102418.84
2023-01-23T08:53:40.548Z,102415.28
2023-01-23T08:56:08.315Z,102417.75
2023-01-23T08:58:36.117Z,102419.34
2023-01-23T09:01:03.963Z,102419.94
2023-01-23T09:03:31.846Z,102424.53
2023-01-23T09:05:59.738Z,102421.06
2023-01-23T09:08:27.562Z,102431.94
2023-01-23T09:10:56.453Z,102418.47
2023-01-23T09:13:24.389Z,102431.19
2023-01-23T09:15:52.338Z,102432.19
2023-01-23T09:18:22.825Z,102439.34
2023-01-23T09:20:50.559Z,102435.19
2023-01-23T09:23:18.385Z,102426.66
2023-01-23T09:25:46.132Z,102429.22
2023-01-23T09:28:13.954Z,102432.19
2023-01-23T09:30:42.029Z,102431.34
2023-01-23T09:33:09.801Z,102433.31
2023-01-23T09:35:37.645Z,102436.78
2023-01-23T09:38:07.688Z,102435.94
2023-01-23T09:40:35.585Z,102435.94
2023-01-23T09:43:03.339Z,102427.88
2023-01-23T09:45:31.079Z,102436.16
2023-01-23T09:47:58.841Z,102442.34
2023-01-23T09:50:26.620Z,102436.16
2023-01-23T09:52:55.015Z,102440.63
2023-01-23T09:55:22.816Z,102436.16
2023-01-23T09:57:50.676Z,102442.34
2023-01-23T10:00:20.396Z,102437.16
2023-01-23T10:02:48.391Z,102436.16
2023-01-23T10:05:16.380Z,102436.16
2023-01-23T10:07:44.192Z,102437.28
2023-01-23T10:10:11.954Z,102437.53
2023-01-23T10:12:40.244Z,102429.53
2023-01-23T10:15:08.111Z,102435.69
2023-01-23T10:17:35.940Z,102429.38
2023-01-23T10:20:03.722Z,102428.50
2023-01-23T10:22:33.701Z,102426.81
2023-01-23T10:25:01.477Z,102420.72
2023-01-23T10:27:29.265Z,102417.16
2023-01-23T10:29:57.037Z,102422.34
2023-01-23T10:32:24.882Z,102424.34
2023-01-23T10:34:52.745Z,102425.31
2023-01-23T10:37:21.635Z,102412.56
2023-01-23T10:39:49.472Z,102414.44
2023-01-23T10:42:17.239Z,102415.03
2023-01-23T10:44:45.032Z,102420.34
2023-01-23T10:47:12.931Z,102422.06
2023-01-23T10:49:41.251Z,102425.91
2023-01-23T10:52:09.031Z,102418.75
2023-01-23T10:54:36.937Z,102420.34
2023-01-23T10:57:04.938Z,102416.88
2023-01-23T10:59:32.723Z,102423.44
2023-01-23T11:02:00.692Z,102424.34
2023-01-23T11:04:28.571Z,102419.88
2023-01-23T11:06:56.307Z,102417.16
2023-01-23T11:09:24.051Z,102421.75
2023-01-23T11:11:51.812Z,102411.72
2023-01-23T11:14:22.720Z,102419.13
2023-01-23T11:16:50.462Z,102420.03
2023-01-23T11:19:18.331Z,102422.59
2023-01-23T11:21:46.123Z,102420.72
2023-01-23T11:24:13.956Z,102420.63
2023-01-23T11:26:41.761Z,102424.94
2023-01-23T11:29:10.109Z,102428.25
2023-01-23T11:31:38.024Z,102418.13
2023-01-23T11:34:05.952Z,102417.13
2023-01-23T11:36:33.789Z,102418.00
2023-01-23T11:39:01.565Z,102417.75
2023-01-23T11:41:29.404Z,102415.00
2023-01-23T11:43:57.184Z,102414.75
2023-01-23T11:46:25.058Z,102411.97
2023-01-23T11:48:53.087Z,102409.16
2023-01-23T11:51:20.917Z,102414.31
2023-01-23T11:53:48.823Z,102410.59
2023-01-23T11:56:16.587Z,102413.19
2023-01-23T11:58:49.703Z,102403.56
2023-01-23T12:01:18.248Z,102411.56
2023-01-23T12:03:46.032Z,102412.47
2023-01-23T12:09:01.688Z,102411.72
2023-01-23T12:11:29.450Z,102405.00
2023-01-23T12:13:57.371Z,102405.63
2023-01-23T12:16:25.315Z,102405.47
2023-01-23T12:18:53.135Z,102396.44
2023-01-23T12:21:21.394Z,102396.59
2023-01-23T12:23:49.166Z,102396.59
2023-01-23T12:26:18.817Z,102401.78
2023-01-23T12:28:46.605Z,102403.63
2023-01-23T12:31:14.516Z,102397.91
2023-01-23T12:33:42.359Z,102397.19
2023-01-23T12:36:10.319Z,102397.66
2023-01-23T12:38:38.262Z,102399.09
2023-01-23T12:41:06.038Z,102404.53
2023-01-23T12:43:33.883Z,102397.38
2023-01-23T12:46:01.630Z,102395.66
2023-01-23T12:48:32.403Z,102408.66
2023-01-23T12:51:00.225Z,102406.94
2023-01-23T12:53:28.222Z,102409.53
2023-01-23T12:55:59.770Z,102400.38
2023-01-23T12:58:28.198Z,102403.09
2023-01-23T13:00:55.957Z,102405.09
2023-01-23T13:03:24.627Z,102409.53
2023-01-23T13:05:53.514Z,102411.13
2023-01-23T13:08:21.394Z,102405.09
2023-01-23T13:11:06.413Z,102401.63
2023-01-23T13:13:34.197Z,102404.50
2023-01-23T13:16:02.004Z,102413.78
2023-01-23T13:18:29.875Z,102409.47
2023-01-23T13:21:15.165Z,102398.59
2023-01-23T13:23:42.981Z,102400.44
2023-01-23T13:26:12.125Z,102398.69
2023-01-23T13:28:45.241Z,102401.56
2023-01-23T13:31:13.929Z,102395.50
2023-01-23T13:33:43.700Z,102397.38
2023-01-23T13:36:11.569Z,102393.78
2023-01-23T13:38:40.433Z,102391.81
2023-01-23T13:41:10.449Z,102391.81
2023-01-23T13:43:38.324Z,102394.53
2023-01-23T13:46:06.122Z,102387.47
2023-01-23T14:21:02.461Z,102401.09
2023-01-23T14:23:30.282Z,102402.31
2023-01-23T14:25:58.306Z,102403.16
2023-01-23T14:28:26.072Z,102406.16
2023-01-23T14:30:53.923Z,102408.41
2023-01-23T14:33:21.739Z,102405.56
2023-01-23T14:35:49.502Z,102396.78
2023-01-23T14:38:18.419Z,102400.50
2023-01-23T14:40:50.898Z,102407.53
2023-01-23T14:43:19.059Z,102411.38
2023-01-23T14:45:46.897Z,102418.69
2023-01-23T14:48:14.705Z,102414.00
2023-01-23T14:50:42.515Z,102413.09
2023-01-23T14:53:10.366Z,102417.28
2023-01-23T14:55:38.499Z,102419.09
2023-01-23T14:58:07.506Z,102428.69
2023-01-23T15:00:35.283Z,102422.97
2023-01-23T15:03:04.435Z,102426.16
2023-01-23T15:05:32.928Z,102425.69
2023-01-23T15:08:01.398Z,102434.75
2023-01-23T15:10:29.241Z,102431.50
2023-01-23T15:12:56.972Z,102438.28
2023-01-23T15:15:25.309Z,102432.13
2023-01-23T15:17:53.233Z,102433.13
2023-01-23T15:20:20.978Z,102441.91
2023-01-23T15:22:48.846Z,102431.13
2023-01-23T15:25:16.764Z,102429.47
2023-01-23T15:27:44.669Z,102431.25
2023-01-23T15:30:12.569Z,102435.41
2023-01-23T15:32:40.322Z,102434.41
2023-01-23T15:35:08.171Z,102444.00
2023-01-23T15:37:36.003Z,102443.09
2023-01-23T15:40:04.477Z,102443.78
2023-01-23T15:42:32.348Z,102448.56
2023-01-23T15:45:01.589Z,102447.38
2023-01-23T15:47:29.572Z,102450.63
2023-01-23T15:50:00.339Z,102451.03
2023-01-23T15:52:28.493Z,102455.44
2023-01-23T15:54:56.276Z,102459.50
2023-01-23T15:57:24.126Z,102454.13
2023-01-23T15:59:51.904Z,102451.72
2023-01-23T16:02:30.173Z,102457.31
2023-01-23T16:05:01.253Z,102455.78
2023-01-23T16:07:29.079Z,102450.34
2023-01-23T16:09:57.832Z,102452.88
2023-01-23T16:12:25.650Z,102447.56
2023-01-23T16:14:53.794Z,102444.59
2023-01-23T16:17:21.642Z,102449.94
2023-01-23T16:19:50.707Z,102446.09
2023-01-23T16:22:18.591Z,102449.84
2023-01-23T16:24:46.460Z,102453.28
2023-01-23T16:27:14.624Z,102445.03
2023-01-23T16:29:43.974Z,102456.75
2023-01-23T16:32:11.990Z,102463.66
2023-01-23T16:34:40.034Z,102469.34
2023-01-23T16:37:16.813Z,102461.34
2023-01-23T16:39:44.821Z,102459.44
2023-01-23T16:42:12.522Z,102467.03
2023-01-23T16:44:40.743Z,102460.13
2023-01-23T16:47:18.099Z,102469.84
2023-01-23T16:50:44.042Z,102469.53
2023-01-23T16:53:08.885Z,102470.00
2023-01-23T16:55:44.913Z,102472.50
2023-01-23T16:58:30.956Z,102475.47
2023-01-23T17:01:00.247Z,102479.97
2023-01-23T17:03:28.308Z,102483.31
2023-01-23T17:05:56.121Z,102480.66
2023-01-23T17:08:23.966Z,102482.16
2023-01-23T17:11:09.358Z,102476.88
2023-01-23T17:13:37.129Z,102487.72
2023-01-23T17:16:07.359Z,102481.88
2023-01-23T17:18:40.490Z,102480.28
2023-01-23T17:21:10.488Z,102474.25
2023-01-23T17:23:38.275Z,102489.34
2023-01-23T17:26:06.115Z,102485.19
2023-01-23T17:28:33.881Z,102484.28
2023-01-23T17:31:01.765Z,102472.34
2023-01-23T17:33:31.210Z,102484.66
2023-01-23T17:35:59.084Z,102491.28
2023-01-23T17:38:27.097Z,102483.69
2023-01-23T17:40:55.184Z,102481.03
2023-01-23T17:43:23.029Z,102489.25
2023-01-23T17:45:50.990Z,102486.47
2023-01-23T17:48:18.905Z,102487.19
2023-01-23T17:50:46.683Z,102491.94
2023-01-23T17:53:14.969Z,102490.81
2023-01-23T17:55:46.677Z,102504.09
2023-01-23T17:58:14.580Z,102497.31
2023-01-23T18:00:42.534Z,102490.53
2023-01-23T18:03:10.577Z,102497.31
2023-01-23T18:05:38.631Z,102502.94
2023-01-23T18:08:06.504Z,102498.53
2023-01-23T18:10:34.397Z,102489.44
2023-01-23T18:13:03.632Z,102489.63
2023-01-23T18:15:31.615Z,102494.91
2023-01-23T18:17:59.436Z,102496.84
2023-01-23T18:20:28.542Z,102492.13
2023-01-23T18:22:56.637Z,102489.13
2023-01-23T18:25:26.260Z,102488.19
2023-01-23T18:27:55.416Z,102486.00
2023-01-23T18:30:23.357Z,102488.25
2023-01-23T18:32:51.179Z,102488.53
2023-01-23T18:35:22.387Z,102494.31
2023-01-23T18:37:50.833Z,102485.41
2023-01-23T18:40:18.688Z,102496.63
2023-01-23T18:42:46.472Z,102496.78
2023-01-23T18:45:20.764Z,102505.44
2023-01-23T18:47:54.798Z,102498.25
2023-01-23T18:50:24.605Z,102497.44
2023-01-23T18:52:52.716Z,102505.84
2023-01-23T18:55:20.911Z,102510.94
2023-01-23T18:57:48.918Z,102509.72
2023-01-23T19:00:16.906Z,102511.78
2023-01-23T19:02:45.228Z,102517.75
2023-01-23T19:05:13.906Z,102509.69
2023-01-23T19:07:41.819Z,102507.00
2023-01-23T19:10:09.665Z,102509.13
2023-01-23T19:12:37.915Z,102515.41
2023-01-23T19:15:05.764Z,102515.69
2023-01-23T19:17:33.563Z,102509.06
2023-01-23T19:20:01.483Z,102506.59
2023-01-23T19:22:29.271Z,102509.38
2023-01-23T19:24:57.113Z,102508.88
2023-01-23T19:27:24.930Z,102508.88
2023-01-23T19:29:52.737Z,102516.56
2023-01-23T19:32:21.116Z,102522.69
2023-01-23T19:34:49.313Z,102516.44
2023-01-23T19:37:17.394Z,102523.56
2023-01-23T19:39:45.313Z,102529.25
2023-01-23T19:42:13.221Z,102521.16
2023-01-23T19:44:41.163Z,102516.59
2023-01-23T19:47:09.015Z,102523.53
2023-01-23T19:49:36.862Z,102512.66
2023-01-23T19:52:04.951Z,102513.19
2023-01-23T19:54:32.905Z,102522.22
2023-01-23T19:57:01.315Z,102511.53
2023-01-23T19:59:29.492Z,102516.47
2023-01-23T20:01:57.393Z,102508.84
2023-01-23T20:04:25.452Z,102509.81
2023-01-23T20:06:53.271Z,102515.94
2023-01-23T20:09:21.133Z,102521.78
2023-01-23T20:11:49.103Z,102518.63
2023-01-23T20:14:16.977Z,102517.13
2023-01-23T20:16:45.014Z,102511.25
2023-01-23T20:19:13.089Z,102519.25
2023-01-23T20:21:41.648Z,102523.28
2023-01-23T20:24:09.609Z,102526.25
2023-01-23T20:26:37.490Z,102523.22
2023-01-23T20:29:05.319Z,102526.16
2023-01-23T20:31:33.224Z,102521.50
2023-01-23T20:34:01.315Z,102522.25
2023-01-23T20:36:29.290Z,102525.13
2023-01-23T20:38:57.254Z,102527.41
2023-01-23T20:41:25.214Z,102522.94
2023-01-23T20:43:53.203Z,102522.88
2023-01-23T20:46:21.099Z,102523.38
2023-01-23T20:48:48.938Z,102531.09
2023-01-23T20:51:16.806Z,102533.13
2023-01-23T20:53:44.889Z,102538.38
2023-01-23T20:56:12.719Z,102542.59
2023-01-23T20:58:58.373Z,102533.09
2023-01-23T21:01:26.277Z,102533.84
2023-01-23T21:03:54.300Z,102535.19
2023-01-23T21:06:22.468Z,102535.47
2023-01-23T21:08:50.292Z,102538.53
2023-01-23T21:11:18.149Z,102536.94
2023-01-23T21:13:45.950Z,102537.13
2023-01-23T21:16:13.772Z,102544.16
2023-01-23T21:18:44.597Z,102546.13
2023-01-23T21:21:12.407Z,102545.13
2023-01-23T21:23:40.183Z,102542.69
2023-01-23T21:26:07.905Z,102546.56
2023-01-23T21:28:36.305Z,102534.06
2023-01-23T21:31:04.185Z,102542.81
2023-01-23T21:33:32.099Z,102538.50
2023-01-23T21:35:59.892Z,102541.53
2023-01-23T21:38:27.734Z,102539.78
2023-01-23T21:43:23.260Z,102547.53
2023-01-23T21:45:51.545Z,102543.22
2023-01-23T21:48:19.339Z,102539.06
2023-01-23T21:50:47.058Z,102540.34
2023-01-23T21:53:14.837Z,102543.03
2023-01-23T21:55:42.583Z,102537.44
2023-01-23T21:58:10.336Z,102531.41
2023-01-23T22:00:55.938Z,102542.59
2023-01-23T22:03:23.684Z,102545.34
2023-01-23T22:05:51.415Z,102541.03
2023-01-23T22:08:19.239Z,102542.19
2023-01-23T22:10:46.977Z,102544.47
2023-01-23T22:13:15.037Z,102547.75
2023-01-23T22:15:43.018Z,102548.31
2023-01-23T22:18:10.905Z,102551.28
2023-01-23T22:20:38.852Z,102554.16
2023-01-23T22:23:06.676Z,102552.56
2023-01-23T22:25:34.703Z,102540.19
2023-01-23T22:28:02.588Z,102553.81
2023-01-23T22:30:30.333Z,102545.91
2023-01-23T22:32:58.076Z,102537.88
2023-01-23T22:35:26.014Z,102536.28
2023-01-23T22:37:53.781Z,102550.06
2023-01-23T22:40:21.597Z,102540.41
2023-01-23T22:42:49.305Z,102541.41
2023-01-23T22:45:17.080Z,102546.00
2023-01-23T22:47:44.997Z,102530.63
2023-01-23T22:50:12.819Z,102539.81
2023-01-23T22:52:40.575Z,102532.88
2023-01-23T22:55:08.563Z,102537.63
2023-01-23T22:57:36.308Z,102537.63
2023-01-23T23:00:04.038Z,102534.91
2023-01-23T23:02:31.840Z,102535.03
2023-01-23T23:04:59.660Z,102538.63
2023-01-23T23:07:27.416Z,102529.84
2023-01-23T23:09:55.197Z,102531.72
2023-01-23T23:12:22.946Z,102529.38
2023-01-23T23:14:50.700Z,102544.88
2023-01-23T23:17:18.557Z,102535.97
2023-01-23T23:19:46.357Z,102542.56
2023-01-23T23:22:14.314Z,102532.75
2023-01-23T23:24:42.105Z,102541.78
2023-01-23T23:27:09.857Z,102535.00
2023-01-23T23:29:37.624Z,102541.72
2023-01-23T23:32:05.534Z,102546.31
2023-01-23T23:34:34.662Z,102543.72
2023-01-23T23:37:03.471Z,102547.44
2023-01-23T23:39:31.223Z,102536.53
2023-01-23T23:41:59.661Z,102545.56
2023-01-23T23:44:27.471Z,102536.81
2023-01-23T23:46:55.248Z,102543.09
2023-01-23T23:49:23.038Z,102550.69
2023-01-23T23:51:51.018Z,102543.38
2023-01-23T23:54:18.808Z,102552.19
2023-01-23T23:56:46.568Z,102544.25
2023-01-23T23:59:14.367Z,102551.56
